sensor_id;sensor_type;location;lat;lon;timestamp;P1;durP1;ratioP1;P2;durP2;ratioP2
14903;SDS011;7543;53.148;8.234;2023-07-02T00:00:15;3.17;;;1.63;;
14903;SDS011;7543;53.148;8.234;2023-07-02T00:02:46;5.00;;;1.70;;
14903;SDS011;7543;53.148;8.234;2023-07-02T00:05:15;3.77;;;1.57;;
14903;SDS011;7543;53.148;8.234;2023-07-02T00:07:44;4.00;;;2.20;;
14903;SDS011;7543;53.148;8.234;2023-07-02T00:10:12;3.40;;;1.93;;
14903;SDS011;7543;53.148;8.234;2023-07-02T00:12:42;3.17;;;1.70;;
14903;SDS011;7543;53.148;8.234;2023-07-02T00:15:11;2.00;;;1.50;;
14903;SDS011;7543;53.148;8.234;2023-07-02T00:17:39;4.10;;;1.63;;
14903;SDS011;7543;53.148;8.234;2023-07-02T00:20:08;3.07;;;1.70;;
14903;SDS011;7543;53.148;8.234;2023-07-02T00:22:43;4.10;;;1.67;;
14903;SDS011;7543;53.148;8.234;2023-07-02T00:25:13;4.63;;;1.70;;
14903;SDS011;7543;53.148;8.234;2023-07-02T00:27:45;3.60;;;1.80;;
14903;SDS011;7543;53.148;8.234;2023-07-02T00:30:14;4.43;;;1.70;;
14903;SDS011;7543;53.148;8.234;2023-07-02T00:32:42;3.13;;;1.93;;
14903;SDS011;7543;53.148;8.234;2023-07-02T00:35:12;2.97;;;1.43;;
14903;SDS011;7543;53.148;8.234;2023-07-02T00:37:41;4.13;;;1.60;;
14903;SDS011;7543;53.148;8.234;2023-07-02T00:40:10;3.27;;;1.80;;
14903;SDS011;7543;53.148;8.234;2023-07-02T00:42:38;3.00;;;1.90;;
14903;SDS011;7543;53.148;8.234;2023-07-02T00:45:09;4.90;;;1.83;;
14903;SDS011;7543;53.148;8.234;2023-07-02T00:47:38;4.37;;;2.13;;
14903;SDS011;7543;53.148;8.234;2023-07-02T00:50:06;4.43;;;1.80;;
14903;SDS011;7543;53.148;8.234;2023-07-02T00:52:36;3.27;;;1.67;;
14903;SDS011;7543;53.148;8.234;2023-07-02T00:55:04;4.03;;;2.10;;
14903;SDS011;7543;53.148;8.234;2023-07-02T00:57:33;8.27;;;2.40;;
14903;SDS011;7543;53.148;8.234;2023-07-02T01:00:02;3.60;;;2.13;;
14903;SDS011;7543;53.148;8.234;2023-07-02T01:02:32;3.77;;;2.10;;
14903;SDS011;7543;53.148;8.234;2023-07-02T01:05:01;5.43;;;2.23;;
14903;SDS011;7543;53.148;8.234;2023-07-02T01:07:29;5.10;;;2.23;;
14903;SDS011;7543;53.148;8.234;2023-07-02T01:09:57;3.50;;;1.93;;
14903;SDS011;7543;53.148;8.234;2023-07-02T01:12:26;2.43;;;1.77;;
14903;SDS011;7543;53.148;8.234;2023-07-02T01:14:56;5.23;;;2.20;;
14903;SDS011;7543;53.148;8.234;2023-07-02T01:17:27;5.83;;;2.10;;
14903;SDS011;7543;53.148;8.234;2023-07-02T01:20:05;3.90;;;2.03;;
14903;SDS011;7543;53.148;8.234;2023-07-02T01:22:35;4.50;;;2.00;;
14903;SDS011;7543;53.148;8.234;2023-07-02T01:25:04;4.67;;;2.20;;
14903;SDS011;7543;53.148;8.234;2023-07-02T01:27:37;2.30;;;1.97;;
14903;SDS011;7543;53.148;8.234;2023-07-02T01:30:07;3.87;;;1.73;;
14903;SDS011;7543;53.148;8.234;2023-07-02T01:32:37;6.60;;;2.23;;
14903;SDS011;7543;53.148;8.234;2023-07-02T01:35:08;6.27;;;2.30;;
14903;SDS011;7543;53.148;8.234;2023-07-02T01:37:37;3.23;;;2.07;;
14903;SDS011;7543;53.148;8.234;2023-07-02T01:40:07;6.83;;;2.53;;
14903;SDS011;7543;53.148;8.234;2023-07-02T01:42:36;7.30;;;2.70;;
14903;SDS011;7543;53.148;8.234;2023-07-02T01:45:05;4.13;;;2.23;;
14903;SDS011;7543;53.148;8.234;2023-07-02T01:47:34;8.27;;;2.77;;
14903;SDS011;7543;53.148;8.234;2023-07-02T01:50:03;5.80;;;2.40;;
14903;SDS011;7543;53.148;8.234;2023-07-02T01:52:34;6.03;;;2.83;;
14903;SDS011;7543;53.148;8.234;2023-07-02T01:55:02;5.90;;;2.53;;
14903;SDS011;7543;53.148;8.234;2023-07-02T01:57:32;6.13;;;2.70;;
14903;SDS011;7543;53.148;8.234;2023-07-02T02:00:00;7.13;;;3.23;;
14903;SDS011;7543;53.148;8.234;2023-07-02T02:02:42;8.90;;;3.07;;
14903;SDS011;7543;53.148;8.234;2023-07-02T02:05:11;8.17;;;2.90;;
14903;SDS011;7543;53.148;8.234;2023-07-02T02:07:40;7.33;;;2.93;;
14903;SDS011;7543;53.148;8.234;2023-07-02T02:10:09;9.83;;;3.13;;
14903;SDS011;7543;53.148;8.234;2023-07-02T02:12:38;6.97;;;2.87;;
14903;SDS011;7543;53.148;8.234;2023-07-02T02:15:07;7.57;;;3.00;;
14903;SDS011;7543;53.148;8.234;2023-07-02T02:17:38;8.73;;;3.00;;
14903;SDS011;7543;53.148;8.234;2023-07-02T02:20:06;5.00;;;2.60;;
14903;SDS011;7543;53.148;8.234;2023-07-02T02:22:36;6.50;;;3.37;;
14903;SDS011;7543;53.148;8.234;2023-07-02T02:25:07;7.43;;;3.07;;
14903;SDS011;7543;53.148;8.234;2023-07-02T02:27:36;7.30;;;3.07;;
14903;SDS011;7543;53.148;8.234;2023-07-02T02:30:04;5.57;;;2.87;;
14903;SDS011;7543;53.148;8.234;2023-07-02T02:32:36;6.57;;;2.73;;
14903;SDS011;7543;53.148;8.234;2023-07-02T02:35:08;6.23;;;2.93;;
14903;SDS011;7543;53.148;8.234;2023-07-02T02:37:38;6.03;;;2.70;;
14903;SDS011;7543;53.148;8.234;2023-07-02T02:40:09;8.43;;;2.90;;
14903;SDS011;7543;53.148;8.234;2023-07-02T02:42:40;9.67;;;3.27;;
14903;SDS011;7543;53.148;8.234;2023-07-02T02:45:08;7.63;;;2.93;;
14903;SDS011;7543;53.148;8.234;2023-07-02T02:47:37;11.00;;;3.17;;
14903;SDS011;7543;53.148;8.234;2023-07-02T02:50:06;7.27;;;2.97;;
14903;SDS011;7543;53.148;8.234;2023-07-02T02:52:36;7.43;;;3.20;;
14903;SDS011;7543;53.148;8.234;2023-07-02T02:55:05;7.77;;;3.07;;
14903;SDS011;7543;53.148;8.234;2023-07-02T02:57:35;8.13;;;3.10;;
14903;SDS011;7543;53.148;8.234;2023-07-02T03:00:04;7.53;;;3.17;;
14903;SDS011;7543;53.148;8.234;2023-07-02T03:02:34;7.27;;;3.23;;
14903;SDS011;7543;53.148;8.234;2023-07-02T03:05:02;8.07;;;3.13;;
14903;SDS011;7543;53.148;8.234;2023-07-02T03:07:31;9.60;;;3.27;;
14903;SDS011;7543;53.148;8.234;2023-07-02T03:10:00;7.27;;;3.00;;
14903;SDS011;7543;53.148;8.234;2023-07-02T03:12:30;10.77;;;3.20;;
14903;SDS011;7543;53.148;8.234;2023-07-02T03:15:00;5.50;;;3.00;;
14903;SDS011;7543;53.148;8.234;2023-07-02T03:17:29;10.00;;;3.67;;
14903;SDS011;7543;53.148;8.234;2023-07-02T03:19:58;4.80;;;2.97;;
14903;SDS011;7543;53.148;8.234;2023-07-02T03:22:26;8.20;;;3.33;;
14903;SDS011;7543;53.148;8.234;2023-07-02T03:24:55;7.43;;;3.30;;
14903;SDS011;7543;53.148;8.234;2023-07-02T03:27:23;9.67;;;3.70;;
14903;SDS011;7543;53.148;8.234;2023-07-02T03:29:52;9.07;;;3.23;;
14903;SDS011;7543;53.148;8.234;2023-07-02T03:32:22;12.07;;;3.83;;
14903;SDS011;7543;53.148;8.234;2023-07-02T03:34:50;9.87;;;3.67;;
14903;SDS011;7543;53.148;8.234;2023-07-02T03:37:21;7.43;;;3.30;;
14903;SDS011;7543;53.148;8.234;2023-07-02T03:39:50;7.63;;;3.50;;
14903;SDS011;7543;53.148;8.234;2023-07-02T03:42:18;7.10;;;3.37;;
14903;SDS011;7543;53.148;8.234;2023-07-02T03:44:46;11.70;;;3.63;;
14903;SDS011;7543;53.148;8.234;2023-07-02T03:47:15;9.97;;;4.00;;
14903;SDS011;7543;53.148;8.234;2023-07-02T03:49:47;11.37;;;3.47;;
14903;SDS011;7543;53.148;8.234;2023-07-02T03:52:15;10.50;;;4.10;;
14903;SDS011;7543;53.148;8.234;2023-07-02T03:54:44;8.30;;;3.37;;
14903;SDS011;7543;53.148;8.234;2023-07-02T03:57:12;8.37;;;3.73;;
14903;SDS011;7543;53.148;8.234;2023-07-02T03:59:41;7.80;;;3.73;;
14903;SDS011;7543;53.148;8.234;2023-07-02T04:02:09;11.20;;;4.00;;
14903;SDS011;7543;53.148;8.234;2023-07-02T04:04:37;11.13;;;3.90;;
14903;SDS011;7543;53.148;8.234;2023-07-02T04:07:07;9.50;;;4.00;;
14903;SDS011;7543;53.148;8.234;2023-07-02T04:09:35;19.87;;;5.17;;
14903;SDS011;7543;53.148;8.234;2023-07-02T04:12:04;13.67;;;4.50;;
14903;SDS011;7543;53.148;8.234;2023-07-02T04:14:33;13.30;;;4.40;;
14903;SDS011;7543;53.148;8.234;2023-07-02T04:17:01;7.93;;;4.13;;
14903;SDS011;7543;53.148;8.234;2023-07-02T04:19:31;11.60;;;4.30;;
14903;SDS011;7543;53.148;8.234;2023-07-02T04:21:59;11.30;;;3.73;;
14903;SDS011;7543;53.148;8.234;2023-07-02T04:24:29;8.10;;;3.87;;
14903;SDS011;7543;53.148;8.234;2023-07-02T04:26:57;15.40;;;4.10;;
14903;SDS011;7543;53.148;8.234;2023-07-02T04:29:26;7.87;;;3.43;;
14903;SDS011;7543;53.148;8.234;2023-07-02T04:31:54;10.50;;;4.07;;
14903;SDS011;7543;53.148;8.234;2023-07-02T04:34:23;9.37;;;3.87;;
14903;SDS011;7543;53.148;8.234;2023-07-02T04:36:51;13.60;;;4.83;;
14903;SDS011;7543;53.148;8.234;2023-07-02T04:39:20;11.57;;;4.47;;
14903;SDS011;7543;53.148;8.234;2023-07-02T04:41:50;9.17;;;4.17;;
14903;SDS011;7543;53.148;8.234;2023-07-02T04:44:19;13.13;;;4.47;;
14903;SDS011;7543;53.148;8.234;2023-07-02T04:46:49;11.73;;;4.47;;
14903;SDS011;7543;53.148;8.234;2023-07-02T04:49:17;11.50;;;4.17;;
14903;SDS011;7543;53.148;8.234;2023-07-02T04:51:46;14.13;;;4.77;;
14903;SDS011;7543;53.148;8.234;2023-07-02T04:54:14;11.37;;;4.47;;
14903;SDS011;7543;53.148;8.234;2023-07-02T04:56:42;14.20;;;4.83;;
14903;SDS011;7543;53.148;8.234;2023-07-02T04:59:12;20.63;;;4.37;;
14903;SDS011;7543;53.148;8.234;2023-07-02T05:01:40;11.80;;;4.50;;
14903;SDS011;7543;53.148;8.234;2023-07-02T05:04:09;16.63;;;4.30;;
14903;SDS011;7543;53.148;8.234;2023-07-02T05:06:38;14.50;;;4.57;;
14903;SDS011;7543;53.148;8.234;2023-07-02T05:09:07;13.73;;;4.80;;
14903;SDS011;7543;53.148;8.234;2023-07-02T05:11:35;12.73;;;4.50;;
14903;SDS011;7543;53.148;8.234;2023-07-02T05:14:03;13.40;;;4.50;;
14903;SDS011;7543;53.148;8.234;2023-07-02T05:16:33;10.50;;;4.23;;
14903;SDS011;7543;53.148;8.234;2023-07-02T05:19:02;13.20;;;5.00;;
14903;SDS011;7543;53.148;8.234;2023-07-02T05:21:30;12.23;;;4.47;;
14903;SDS011;7543;53.148;8.234;2023-07-02T05:23:58;19.37;;;4.87;;
14903;SDS011;7543;53.148;8.234;2023-07-02T05:26:26;14.60;;;4.47;;
14903;SDS011;7543;53.148;8.234;2023-07-02T05:28:55;12.70;;;4.70;;
14903;SDS011;7543;53.148;8.234;2023-07-02T05:31:23;11.97;;;4.60;;
14903;SDS011;7543;53.148;8.234;2023-07-02T05:33:53;14.30;;;4.93;;
14903;SDS011;7543;53.148;8.234;2023-07-02T05:36:21;15.23;;;4.67;;
14903;SDS011;7543;53.148;8.234;2023-07-02T05:38:49;13.60;;;4.67;;
14903;SDS011;7543;53.148;8.234;2023-07-02T05:41:18;17.13;;;5.10;;
14903;SDS011;7543;53.148;8.234;2023-07-02T05:43:46;16.20;;;5.07;;
14903;SDS011;7543;53.148;8.234;2023-07-02T05:46:15;18.00;;;5.60;;
14903;SDS011;7543;53.148;8.234;2023-07-02T05:48:43;13.00;;;4.73;;
14903;SDS011;7543;53.148;8.234;2023-07-02T05:51:13;15.77;;;4.97;;
14903;SDS011;7543;53.148;8.234;2023-07-02T05:53:41;12.13;;;4.33;;
14903;SDS011;7543;53.148;8.234;2023-07-02T05:56:09;20.53;;;5.63;;
14903;SDS011;7543;53.148;8.234;2023-07-02T05:58:38;9.90;;;4.60;;
14903;SDS011;7543;53.148;8.234;2023-07-02T06:01:06;13.03;;;5.40;;
14903;SDS011;7543;53.148;8.234;2023-07-02T06:03:34;17.80;;;5.50;;
14903;SDS011;7543;53.148;8.234;2023-07-02T06:06:04;11.13;;;4.53;;
14903;SDS011;7543;53.148;8.234;2023-07-02T06:08:34;14.00;;;4.87;;
14903;SDS011;7543;53.148;8.234;2023-07-02T06:11:02;14.37;;;5.47;;
14903;SDS011;7543;53.148;8.234;2023-07-02T06:13:31;13.60;;;5.07;;
14903;SDS011;7543;53.148;8.234;2023-07-02T06:15:59;18.60;;;5.20;;
14903;SDS011;7543;53.148;8.234;2023-07-02T06:18:27;14.10;;;4.83;;
14903;SDS011;7543;53.148;8.234;2023-07-02T06:20:56;16.93;;;5.03;;
14903;SDS011;7543;53.148;8.234;2023-07-02T06:23:24;14.73;;;4.63;;
14903;SDS011;7543;53.148;8.234;2023-07-02T06:25:58;15.80;;;5.50;;
14903;SDS011;7543;53.148;8.234;2023-07-02T06:28:33;12.80;;;4.90;;
14903;SDS011;7543;53.148;8.234;2023-07-02T06:31:01;12.70;;;5.30;;
14903;SDS011;7543;53.148;8.234;2023-07-02T06:33:30;19.57;;;5.27;;
14903;SDS011;7543;53.148;8.234;2023-07-02T06:35:58;14.10;;;4.70;;
14903;SDS011;7543;53.148;8.234;2023-07-02T06:38:26;16.10;;;5.40;;
14903;SDS011;7543;53.148;8.234;2023-07-02T06:40:56;17.33;;;5.23;;
14903;SDS011;7543;53.148;8.234;2023-07-02T06:43:24;12.60;;;4.63;;
14903;SDS011;7543;53.148;8.234;2023-07-02T06:45:53;8.67;;;3.83;;
14903;SDS011;7543;53.148;8.234;2023-07-02T06:48:21;11.63;;;4.53;;
14903;SDS011;7543;53.148;8.234;2023-07-02T06:50:49;13.47;;;4.93;;
14903;SDS011;7543;53.148;8.234;2023-07-02T06:53:18;14.80;;;4.70;;
14903;SDS011;7543;53.148;8.234;2023-07-02T06:55:46;14.17;;;4.50;;
14903;SDS011;7543;53.148;8.234;2023-07-02T06:58:16;9.77;;;3.57;;
14903;SDS011;7543;53.148;8.234;2023-07-02T07:00:44;15.03;;;4.97;;
14903;SDS011;7543;53.148;8.234;2023-07-02T07:03:13;9.60;;;4.00;;
14903;SDS011;7543;53.148;8.234;2023-07-02T07:05:42;10.93;;;3.83;;
14903;SDS011;7543;53.148;8.234;2023-07-02T07:08:10;15.73;;;3.93;;
14903;SDS011;7543;53.148;8.234;2023-07-02T07:10:38;8.40;;;3.50;;
14903;SDS011;7543;53.148;8.234;2023-07-02T07:13:08;11.07;;;4.03;;
14903;SDS011;7543;53.148;8.234;2023-07-02T07:19:07;11.50;;;4.30;;
14903;SDS011;7543;53.148;8.234;2023-07-02T07:23:12;11.40;;;3.57;;
14903;SDS011;7543;53.148;8.234;2023-07-02T07:26:29;8.80;;;3.70;;
14903;SDS011;7543;53.148;8.234;2023-07-02T07:29:04;13.07;;;3.53;;
14903;SDS011;7543;53.148;8.234;2023-07-02T07:31:39;9.97;;;3.80;;
14903;SDS011;7543;53.148;8.234;2023-07-02T07:34:21;10.03;;;4.07;;
14903;SDS011;7543;53.148;8.234;2023-07-02T07:36:58;11.17;;;3.43;;
14903;SDS011;7543;53.148;8.234;2023-07-02T07:39:31;9.90;;;3.63;;
14903;SDS011;7543;53.148;8.234;2023-07-02T07:42:06;10.90;;;3.90;;
14903;SDS011;7543;53.148;8.234;2023-07-02T07:44:37;8.17;;;3.40;;
14903;SDS011;7543;53.148;8.234;2023-07-02T07:47:07;16.47;;;3.53;;
14903;SDS011;7543;53.148;8.234;2023-07-02T07:49:35;7.87;;;3.03;;
14903;SDS011;7543;53.148;8.234;2023-07-02T07:52:04;7.93;;;3.50;;
14903;SDS011;7543;53.148;8.234;2023-07-02T07:54:33;11.90;;;3.73;;
14903;SDS011;7543;53.148;8.234;2023-07-02T07:57:03;9.40;;;3.53;;
14903;SDS011;7543;53.148;8.234;2023-07-02T07:59:31;12.80;;;3.83;;
14903;SDS011;7543;53.148;8.234;2023-07-02T08:02:00;8.20;;;3.47;;
14903;SDS011;7543;53.148;8.234;2023-07-02T08:04:29;11.43;;;3.93;;
14903;SDS011;7543;53.148;8.234;2023-07-02T08:06:58;7.90;;;3.83;;
14903;SDS011;7543;53.148;8.234;2023-07-02T08:09:26;9.27;;;3.70;;
14903;SDS011;7543;53.148;8.234;2023-07-02T08:11:55;10.73;;;3.10;;
14903;SDS011;7543;53.148;8.234;2023-07-02T08:14:23;10.60;;;3.10;;
14903;SDS011;7543;53.148;8.234;2023-07-02T08:16:51;5.93;;;3.00;;
14903;SDS011;7543;53.148;8.234;2023-07-02T08:19:20;6.60;;;3.10;;
14903;SDS011;7543;53.148;8.234;2023-07-02T08:21:50;8.87;;;3.63;;
14903;SDS011;7543;53.148;8.234;2023-07-02T08:24:18;8.97;;;3.30;;
14903;SDS011;7543;53.148;8.234;2023-07-02T08:26:47;9.20;;;3.03;;
14903;SDS011;7543;53.148;8.234;2023-07-02T08:29:16;6.93;;;3.10;;
14903;SDS011;7543;53.148;8.234;2023-07-02T08:31:44;9.10;;;3.20;;
14903;SDS011;7543;53.148;8.234;2023-07-02T08:34:13;10.03;;;2.90;;
14903;SDS011;7543;53.148;8.234;2023-07-02T08:36:41;9.37;;;3.70;;
14903;SDS011;7543;53.148;8.234;2023-07-02T08:39:12;9.17;;;3.63;;
14903;SDS011;7543;53.148;8.234;2023-07-02T08:41:44;7.60;;;3.00;;
14903;SDS011;7543;53.148;8.234;2023-07-02T08:44:13;6.57;;;3.10;;
14903;SDS011;7543;53.148;8.234;2023-07-02T08:46:42;7.10;;;3.40;;
14903;SDS011;7543;53.148;8.234;2023-07-02T08:49:10;7.43;;;3.50;;
14903;SDS011;7543;53.148;8.234;2023-07-02T08:51:39;10.50;;;2.93;;
14903;SDS011;7543;53.148;8.234;2023-07-02T08:54:07;7.37;;;3.07;;
14903;SDS011;7543;53.148;8.234;2023-07-02T08:56:37;5.87;;;2.60;;
14903;SDS011;7543;53.148;8.234;2023-07-02T08:59:06;7.83;;;3.00;;
14903;SDS011;7543;53.148;8.234;2023-07-02T09:01:44;5.70;;;2.80;;
14903;SDS011;7543;53.148;8.234;2023-07-02T09:04:16;8.57;;;3.43;;
14903;SDS011;7543;53.148;8.234;2023-07-02T09:06:50;10.00;;;3.53;;
14903;SDS011;7543;53.148;8.234;2023-07-02T09:09:19;8.80;;;3.80;;
14903;SDS011;7543;53.148;8.234;2023-07-02T09:11:49;10.63;;;3.57;;
14903;SDS011;7543;53.148;8.234;2023-07-02T09:14:24;9.47;;;2.87;;
14903;SDS011;7543;53.148;8.234;2023-07-02T09:17:04;6.17;;;2.70;;
14903;SDS011;7543;53.148;8.234;2023-07-02T09:19:33;8.83;;;3.23;;
14903;SDS011;7543;53.148;8.234;2023-07-02T09:22:02;7.17;;;2.90;;
14903;SDS011;7543;53.148;8.234;2023-07-02T09:24:31;5.53;;;2.77;;
14903;SDS011;7543;53.148;8.234;2023-07-02T09:27:01;7.40;;;3.03;;
14903;SDS011;7543;53.148;8.234;2023-07-02T09:29:30;5.67;;;2.77;;
14903;SDS011;7543;53.148;8.234;2023-07-02T09:32:00;3.93;;;2.23;;
14903;SDS011;7543;53.148;8.234;2023-07-02T09:34:29;5.57;;;2.00;;
14903;SDS011;7543;53.148;8.234;2023-07-02T09:36:58;7.43;;;2.73;;
14903;SDS011;7543;53.148;8.234;2023-07-02T09:39:27;7.67;;;2.57;;
14903;SDS011;7543;53.148;8.234;2023-07-02T09:41:57;6.83;;;2.17;;
14903;SDS011;7543;53.148;8.234;2023-07-02T09:44:28;6.47;;;1.90;;
14903;SDS011;7543;53.148;8.234;2023-07-02T09:46:58;6.23;;;1.90;;
14903;SDS011;7543;53.148;8.234;2023-07-02T09:49:31;3.73;;;1.90;;
14903;SDS011;7543;53.148;8.234;2023-07-02T09:52:00;2.90;;;1.50;;
14903;SDS011;7543;53.148;8.234;2023-07-02T09:54:29;4.90;;;1.60;;
14903;SDS011;7543;53.148;8.234;2023-07-02T09:56:58;4.40;;;1.80;;
14903;SDS011;7543;53.148;8.234;2023-07-02T09:59:27;4.87;;;1.80;;
14903;SDS011;7543;53.148;8.234;2023-07-02T10:01:57;3.70;;;1.80;;
14903;SDS011;7543;53.148;8.234;2023-07-02T10:04:25;4.57;;;1.90;;
14903;SDS011;7543;53.148;8.234;2023-07-02T10:06:54;4.93;;;2.00;;
14903;SDS011;7543;53.148;8.234;2023-07-02T10:09:34;5.93;;;2.00;;
14903;SDS011;7543;53.148;8.234;2023-07-02T10:12:14;4.30;;;1.70;;
14903;SDS011;7543;53.148;8.234;2023-07-02T10:14:47;4.80;;;1.60;;
14903;SDS011;7543;53.148;8.234;2023-07-02T10:17:25;3.80;;;1.37;;
14903;SDS011;7543;53.148;8.234;2023-07-02T10:19:55;4.97;;;1.43;;
14903;SDS011;7543;53.148;8.234;2023-07-02T10:22:25;5.40;;;1.50;;
14903;SDS011;7543;53.148;8.234;2023-07-02T10:24:54;5.10;;;2.00;;
14903;SDS011;7543;53.148;8.234;2023-07-02T10:27:33;4.17;;;1.50;;
14903;SDS011;7543;53.148;8.234;2023-07-02T10:30:04;5.13;;;1.80;;
14903;SDS011;7543;53.148;8.234;2023-07-02T10:32:34;5.37;;;1.93;;
14903;SDS011;7543;53.148;8.234;2023-07-02T10:35:12;9.30;;;1.93;;
14903;SDS011;7543;53.148;8.234;2023-07-02T10:37:41;6.60;;;1.90;;
14903;SDS011;7543;53.148;8.234;2023-07-02T10:40:10;3.80;;;1.63;;
14903;SDS011;7543;53.148;8.234;2023-07-02T10:42:44;4.53;;;1.93;;
14903;SDS011;7543;53.148;8.234;2023-07-02T10:45:15;6.97;;;2.30;;
14903;SDS011;7543;53.148;8.234;2023-07-02T10:47:43;6.87;;;2.00;;
14903;SDS011;7543;53.148;8.234;2023-07-02T10:50:15;4.97;;;2.07;;
14903;SDS011;7543;53.148;8.234;2023-07-02T10:52:44;6.00;;;2.10;;
14903;SDS011;7543;53.148;8.234;2023-07-02T10:55:16;4.97;;;1.83;;
14903;SDS011;7543;53.148;8.234;2023-07-02T10:57:46;5.73;;;1.90;;
14903;SDS011;7543;53.148;8.234;2023-07-02T11:00:17;7.07;;;2.03;;
14903;SDS011;7543;53.148;8.234;2023-07-02T11:02:46;9.47;;;2.50;;
14903;SDS011;7543;53.148;8.234;2023-07-02T11:05:14;4.17;;;2.10;;
14903;SDS011;7543;53.148;8.234;2023-07-02T11:07:42;5.33;;;2.00;;
14903;SDS011;7543;53.148;8.234;2023-07-02T11:10:17;4.90;;;2.10;;
14903;SDS011;7543;53.148;8.234;2023-07-02T11:12:49;5.03;;;2.30;;
14903;SDS011;7543;53.148;8.234;2023-07-02T11:15:19;5.07;;;2.30;;
14903;SDS011;7543;53.148;8.234;2023-07-02T11:17:48;5.73;;;2.20;;
14903;SDS011;7543;53.148;8.234;2023-07-02T11:20:16;4.83;;;2.70;;
14903;SDS011;7543;53.148;8.234;2023-07-02T11:22:45;3.47;;;2.00;;
14903;SDS011;7543;53.148;8.234;2023-07-02T11:25:18;5.17;;;2.17;;
14903;SDS011;7543;53.148;8.234;2023-07-02T11:27:48;4.30;;;2.13;;
14903;SDS011;7543;53.148;8.234;2023-07-02T11:30:16;4.50;;;2.20;;
14903;SDS011;7543;53.148;8.234;2023-07-02T11:32:50;4.37;;;1.93;;
14903;SDS011;7543;53.148;8.234;2023-07-02T11:35:19;5.17;;;2.10;;
14903;SDS011;7543;53.148;8.234;2023-07-02T11:37:48;6.87;;;2.50;;
14903;SDS011;7543;53.148;8.234;2023-07-02T11:40:17;7.33;;;2.50;;
14903;SDS011;7543;53.148;8.234;2023-07-02T11:42:45;8.10;;;2.40;;
14903;SDS011;7543;53.148;8.234;2023-07-02T11:45:13;5.37;;;2.30;;
14903;SDS011;7543;53.148;8.234;2023-07-02T11:47:41;3.00;;;1.77;;
14903;SDS011;7543;53.148;8.234;2023-07-02T11:50:11;6.87;;;2.00;;
14903;SDS011;7543;53.148;8.234;2023-07-02T11:52:39;4.00;;;1.90;;
14903;SDS011;7543;53.148;8.234;2023-07-02T11:55:09;4.60;;;1.93;;
14903;SDS011;7543;53.148;8.234;2023-07-02T11:57:37;5.73;;;1.80;;
14903;SDS011;7543;53.148;8.234;2023-07-02T12:00:06;6.97;;;2.10;;
14903;SDS011;7543;53.148;8.234;2023-07-02T12:02:35;4.60;;;1.83;;
14903;SDS011;7543;53.148;8.234;2023-07-02T12:05:03;5.10;;;1.93;;
14903;SDS011;7543;53.148;8.234;2023-07-02T12:07:34;5.10;;;1.87;;
14903;SDS011;7543;53.148;8.234;2023-07-02T12:10:02;6.23;;;2.30;;
14903;SDS011;7543;53.148;8.234;2023-07-02T12:12:31;7.70;;;2.20;;
14903;SDS011;7543;53.148;8.234;2023-07-02T12:15:00;6.57;;;2.40;;
14903;SDS011;7543;53.148;8.234;2023-07-02T12:17:29;5.03;;;2.40;;
14903;SDS011;7543;53.148;8.234;2023-07-02T12:19:57;6.63;;;2.80;;
14903;SDS011;7543;53.148;8.234;2023-07-02T12:22:26;7.10;;;2.73;;
14903;SDS011;7543;53.148;8.234;2023-07-02T12:24:56;4.60;;;2.00;;
14903;SDS011;7543;53.148;8.234;2023-07-02T12:27:25;7.70;;;2.70;;
14903;SDS011;7543;53.148;8.234;2023-07-02T12:29:53;7.03;;;2.20;;
14903;SDS011;7543;53.148;8.234;2023-07-02T12:32:23;5.70;;;2.10;;
14903;SDS011;7543;53.148;8.234;2023-07-02T12:34:52;7.97;;;2.80;;
14903;SDS011;7543;53.148;8.234;2023-07-02T12:37:20;4.23;;;1.90;;
14903;SDS011;7543;53.148;8.234;2023-07-02T12:39:50;4.43;;;1.97;;
14903;SDS011;7543;53.148;8.234;2023-07-02T12:42:20;3.40;;;1.90;;
14903;SDS011;7543;53.148;8.234;2023-07-02T12:44:48;7.37;;;2.30;;
14903;SDS011;7543;53.148;8.234;2023-07-02T12:47:16;7.27;;;2.47;;
14903;SDS011;7543;53.148;8.234;2023-07-02T12:49:46;5.30;;;1.90;;
14903;SDS011;7543;53.148;8.234;2023-07-02T12:52:14;4.73;;;2.07;;
14903;SDS011;7543;53.148;8.234;2023-07-02T12:54:43;4.80;;;2.17;;
14903;SDS011;7543;53.148;8.234;2023-07-02T12:57:11;9.53;;;2.27;;
14903;SDS011;7543;53.148;8.234;2023-07-02T12:59:41;3.53;;;2.10;;
14903;SDS011;7543;53.148;8.234;2023-07-02T13:02:09;4.20;;;1.97;;
14903;SDS011;7543;53.148;8.234;2023-07-02T13:04:38;4.53;;;2.10;;
14903;SDS011;7543;53.148;8.234;2023-07-02T13:07:06;6.87;;;2.17;;
14903;SDS011;7543;53.148;8.234;2023-07-02T13:09:35;4.83;;;2.20;;
14903;SDS011;7543;53.148;8.234;2023-07-02T13:12:04;4.67;;;2.00;;
14903;SDS011;7543;53.148;8.234;2023-07-02T13:14:33;8.77;;;2.23;;
14903;SDS011;7543;53.148;8.234;2023-07-02T13:17:03;6.77;;;2.03;;
14903;SDS011;7543;53.148;8.234;2023-07-02T13:19:32;5.43;;;2.10;;
14903;SDS011;7543;53.148;8.234;2023-07-02T13:22:00;5.93;;;2.27;;
14903;SDS011;7543;53.148;8.234;2023-07-02T13:24:32;4.33;;;2.20;;
14903;SDS011;7543;53.148;8.234;2023-07-02T13:27:02;5.43;;;2.20;;
14903;SDS011;7543;53.148;8.234;2023-07-02T13:29:32;5.70;;;2.13;;
14903;SDS011;7543;53.148;8.234;2023-07-02T13:32:02;4.97;;;2.03;;
14903;SDS011;7543;53.148;8.234;2023-07-02T13:34:31;5.20;;;1.80;;
14903;SDS011;7543;53.148;8.234;2023-07-02T13:37:00;4.97;;;1.80;;
14903;SDS011;7543;53.148;8.234;2023-07-02T13:39:29;6.13;;;1.90;;
14903;SDS011;7543;53.148;8.234;2023-07-02T13:41:58;6.47;;;2.20;;
14903;SDS011;7543;53.148;8.234;2023-07-02T13:44:26;6.43;;;1.87;;
14903;SDS011;7543;53.148;8.234;2023-07-02T13:46:55;7.73;;;2.03;;
14903;SDS011;7543;53.148;8.234;2023-07-02T13:49:24;5.10;;;1.70;;
14903;SDS011;7543;53.148;8.234;2023-07-02T13:51:53;3.93;;;1.90;;
14903;SDS011;7543;53.148;8.234;2023-07-02T13:54:21;4.23;;;1.83;;
14903;SDS011;7543;53.148;8.234;2023-07-02T13:56:52;3.60;;;1.60;;
14903;SDS011;7543;53.148;8.234;2023-07-02T13:59:22;6.97;;;1.97;;
14903;SDS011;7543;53.148;8.234;2023-07-02T14:01:51;5.10;;;1.90;;
14903;SDS011;7543;53.148;8.234;2023-07-02T14:04:19;4.70;;;2.10;;
14903;SDS011;7543;53.148;8.234;2023-07-02T14:06:47;7.97;;;2.00;;
14903;SDS011;7543;53.148;8.234;2023-07-02T14:09:16;4.90;;;1.80;;
14903;SDS011;7543;53.148;8.234;2023-07-02T14:11:44;5.53;;;2.17;;
14903;SDS011;7543;53.148;8.234;2023-07-02T14:14:13;5.83;;;2.33;;
14903;SDS011;7543;53.148;8.234;2023-07-02T14:16:43;3.97;;;1.80;;
14903;SDS011;7543;53.148;8.234;2023-07-02T14:19:12;2.97;;;1.60;;
14903;SDS011;7543;53.148;8.234;2023-07-02T14:21:40;4.80;;;1.63;;
14903;SDS011;7543;53.148;8.234;2023-07-02T14:24:09;5.90;;;1.57;;
14903;SDS011;7543;53.148;8.234;2023-07-02T14:26:37;3.23;;;1.80;;
14903;SDS011;7543;53.148;8.234;2023-07-02T14:29:06;6.30;;;2.10;;
14903;SDS011;7543;53.148;8.234;2023-07-02T14:31:35;2.80;;;1.80;;
14903;SDS011;7543;53.148;8.234;2023-07-02T14:34:05;5.73;;;2.03;;
14903;SDS011;7543;53.148;8.234;2023-07-02T14:36:33;5.80;;;1.83;;
14903;SDS011;7543;53.148;8.234;2023-07-02T14:39:02;5.70;;;1.83;;
14903;SDS011;7543;53.148;8.234;2023-07-02T14:41:30;4.40;;;1.80;;
14903;SDS011;7543;53.148;8.234;2023-07-02T14:44:02;5.97;;;2.00;;
14903;SDS011;7543;53.148;8.234;2023-07-02T14:46:31;3.57;;;1.87;;
14903;SDS011;7543;53.148;8.234;2023-07-02T14:48:59;4.90;;;2.00;;
14903;SDS011;7543;53.148;8.234;2023-07-02T14:51:29;7.07;;;2.23;;
14903;SDS011;7543;53.148;8.234;2023-07-02T14:53:57;5.03;;;1.63;;
14903;SDS011;7543;53.148;8.234;2023-07-02T14:56:26;5.33;;;2.00;;
14903;SDS011;7543;53.148;8.234;2023-07-02T14:58:54;3.43;;;1.77;;
14903;SDS011;7543;53.148;8.234;2023-07-02T15:01:23;4.97;;;2.07;;
14903;SDS011;7543;53.148;8.234;2023-07-02T15:03:52;5.80;;;1.80;;
14903;SDS011;7543;53.148;8.234;2023-07-02T15:06:20;4.27;;;1.90;;
14903;SDS011;7543;53.148;8.234;2023-07-02T15:08:50;5.10;;;1.90;;
14903;SDS011;7543;53.148;8.234;2023-07-02T15:11:18;3.53;;;1.87;;
14903;SDS011;7543;53.148;8.234;2023-07-02T15:13:46;6.77;;;1.97;;
14903;SDS011;7543;53.148;8.234;2023-07-02T15:16:15;4.30;;;2.33;;